Terminal Aerodrome Forecast
Issued by NWS Topeka, KS

Home | Current Version | Previous Version | Graphics & Text | Print | Product List | Glossary On
Versions: 1 2 3 4 5 6 7 8 9 10 11 12 13 14 15 16 17 18 19 20 21 22 23 24 25 26 27 28
000
FTUS43 KTOP 210258 AAA
TAFTOP
TAF AMD
KTOP 210258Z 2103/2124 14004KT 3SM BR SCT200
      TEMPO 2103/2107 1/4SM FG
     FM210800 23005KT 3SM BR SCT200
     FM211100 24004KT 6SM BR SCT200
     FM211500 21005KT P6SM SCT150
     FM212300 11004KT P6SM SCT150=

USA.gov is the U.S. government's official web portal to all federal, state and local government web resources and services.